| Date | Time | Temp. (oF) | Dew Point (oF) | Rel. Hum. (%) | Press. (in.) | Wind Dir. | Wind Speed (mph) | Hourly Rainfall (in.) |
|
|---|---|---|---|---|---|---|---|---|---|
| 1 | 02/20 | 00:00 | 1 | -15 | 45 | 30.17 | WNW | 25 | 0.00 |
| 2 | 02/19 | 23:00 | 3 | -14 | 44 | 30.15 | WNW | 15 | 0.00 |
| 3 | 02/19 | 22:00 | 5 | -12 | 43 | 30.14 | W | 16 | 0.00 |
| 4 | 02/19 | 21:00 | 7 | -10 | 44 | 30.11 | W | 7 | 0.00 |
| 5 | 02/19 | 20:00 | 8 | -10 | 42 | 30.09 | WNW | 10 | 0.00 |
| 6 | 02/19 | 19:00 | 8 | -8 | 47 | 30.07 | SSE | 3 | 0.00 |
| 7 | 02/19 | 18:00 | 9 | -3 | 57 | 30.03 | WNW | 14 | 0.00 |
| 8 | 02/19 | 17:00 | 9 | -1 | 62 | 29.99 | WNW | 9 | 0.00 |
| 9 | 02/19 | 16:00 | 11 | 1 | 66 | 29.97 | WNW | 13 | 0.00 |
| 10 | 02/19 | 15:00 | 12 | -2 | 52 | 29.94 | W | 10 | 0.00 |
| 11 | 02/19 | 14:00 | 13 | 0 | 54 | 29.94 | WNW | 9 | 0.00 |
| 12 | 02/19 | 13:00 | 16 | 0 | 48 | 29.94 | W | 9 | 0.00 |
| 13 | 02/19 | 12:00 | 15 | -2 | 46 | 29.95 | WNW | 11 | 0.00 |
| 14 | 02/19 | 11:00 | 15 | 0 | 49 | 29.96 | WNW | 13 | 0.00 |
| 15 | 02/19 | 10:00 | 13 | 0 | 53 | 29.96 | WSW | 9 | 0.00 |
| 16 | 02/19 | 09:00 | 12 | 0 | 58 | 29.95 | NNW | 16 | 0.00 |
| 17 | 02/19 | 08:00 | 10 | 0 | 64 | 29.93 | WNW | 7 | 0.00 |
| 18 | 02/19 | 07:00 | 9 | 0 | 66 | 29.91 | S | 7 | 0.00 |
| 19 | 02/19 | 06:00 | 9 | 0 | 66 | 29.89 | SSW | 5 | 0.00 |
| 20 | 02/19 | 05:00 | 9 | 0 | 65 | 29.88 | W | 3 | 0.00 |
| 21 | 02/19 | 04:00 | 10 | 0 | 63 | 29.87 | W | 9 | 0.00 |
| 22 | 02/19 | 03:00 | 11 | -1 | 57 | 29.87 | NNW | 6 | 0.00 |
| 23 | 02/19 | 02:00 | 12 | -1 | 53 | 29.88 | WNW | 13 | 0.00 |
| 24 | 02/19 | 01:00 | 13 | -2 | 50 | 29.87 | NNE | 4 | 0.00 |